Time;durP1;ratioP1;P1;durP2;ratioP2;P2;SDS_P1;SDS_P2;PMS_P1;PMS_P2;Temp;Humidity;BMP_temperature;BMP_pressure;BME280_temperature;BME280_humidity;BME280_pressure;Samples;Min_cycle;Max_cycle;Signal;HPM_P1;HPM_P2
2023/06/11 00:01:14;;;;;;;7.57;6.22;;;17.30;99.90;;;;;;4999082;28;20043;-79
2023/06/11 00:03:40;;;;;;;9.00;6.10;;;17.20;99.90;;;;;;5032748;28;20067;-79
2023/06/11 00:06:10;;;;;;;9.65;5.47;;;17.10;99.90;;;;;;4999134;28;20052;-79
2023/06/11 00:08:36;;;;;;;9.55;6.97;;;16.90;99.90;;;;;;5001548;28;20065;-80
2023/06/11 00:11:02;;;;;;;8.18;6.25;;;16.80;99.90;;;;;;5016032;28;20092;-79
2023/06/11 00:13:28;;;;;;;8.75;6.38;;;16.70;99.90;;;;;;5016005;28;20045;-79
2023/06/11 00:15:54;;;;;;;9.73;6.20;;;16.70;99.90;;;;;;5015465;28;20038;-80
2023/06/11 00:18:20;;;;;;;10.25;7.20;;;16.50;99.90;;;;;;4990604;28;20503;-79
2023/06/11 00:20:47;;;;;;;8.60;6.35;;;16.50;99.90;;;;;;5016121;28;20113;-79
2023/06/11 00:23:13;;;;;;;7.47;6.40;;;16.40;99.90;;;;;;4999245;28;20538;-79
2023/06/11 00:25:39;;;;;;;9.48;6.60;;;16.30;99.90;;;;;;4999242;28;20106;-79
2023/06/11 00:28:05;;;;;;;9.38;6.68;;;16.30;99.90;;;;;;5012798;28;20073;-79
2023/06/11 00:30:30;;;;;;;8.35;7.05;;;16.30;99.90;;;;;;4991411;28;20491;-79
2023/06/11 00:32:56;;;;;;;9.85;7.28;;;16.50;99.90;;;;;;5012139;28;20037;-79
2023/06/11 00:35:22;;;;;;;8.18;7.30;;;16.60;99.90;;;;;;5013507;28;20069;-79
2023/06/11 00:37:49;;;;;;;8.90;7.50;;;16.70;99.90;;;;;;5011063;28;20053;-79
2023/06/11 00:40:15;;;;;;;8.05;7.25;;;16.70;99.90;;;;;;5014707;28;20037;-80
2023/06/11 00:42:41;;;;;;;9.77;7.97;;;16.70;99.90;;;;;;5015681;28;20518;-79
2023/06/11 00:45:08;;;;;;;9.45;8.23;;;16.90;99.90;;;;;;5015093;28;20033;-79
2023/06/11 00:47:36;;;;;;;11.75;9.57;;;17.10;99.90;;;;;;5018609;28;20037;-79
2023/06/11 00:50:04;;;;;;;12.45;10.00;;;17.30;99.90;;;;;;5013982;28;20046;-80
2023/06/11 00:52:30;;;;;;;11.90;10.35;;;17.40;99.90;;;;;;5014918;28;20064;-79
2023/06/11 00:54:56;;;;;;;11.25;10.13;;;17.60;99.90;;;;;;4998621;28;20038;-79
2023/06/11 00:57:24;;;;;;;12.23;10.95;;;17.60;99.90;;;;;;5030452;28;20033;-79
2023/06/11 00:59:53;;;;;;;11.75;10.65;;;17.80;99.90;;;;;;5031159;28;20044;-80
2023/06/11 01:02:28;;;;;;;12.13;11.00;;;17.90;99.90;;;;;;4998488;28;20046;-79
2023/06/11 01:04:57;;;;;;;12.60;11.50;;;17.90;99.90;;;;;;5015053;28;20037;-80
2023/06/11 01:07:26;;;;;;;12.40;11.20;;;17.90;99.90;;;;;;5012742;28;20493;-79
2023/06/11 01:09:52;;;;;;;12.25;11.15;;;18.00;99.90;;;;;;5026006;28;20030;-80
2023/06/11 01:12:19;;;;;;;12.48;11.27;;;18.10;99.90;;;;;;5013519;28;20088;-80
2023/06/11 01:14:45;;;;;;;12.13;10.93;;;18.10;99.90;;;;;;4994634;28;20392;-80
2023/06/11 01:17:44;;;;;;;12.55;11.35;;;18.20;99.90;;;;;;5026521;28;20033;-80
2023/06/11 01:20:13;;;;;;;12.45;11.25;;;18.20;99.90;;;;;;4995972;28;20037;-80
2023/06/11 01:23:10;;;;;;;12.75;11.57;;;18.20;99.90;;;;;;4997766;28;20045;-80
2023/06/11 01:25:44;;;;;;;12.35;11.10;;;18.20;99.90;;;;;;5024084;28;20030;-80
2023/06/11 01:28:16;;;;;;;13.35;12.05;;;18.20;99.90;;;;;;4996106;28;20041;-80
2023/06/11 01:30:48;;;;;;;12.98;11.88;;;18.30;99.90;;;;;;5027272;28;20044;-80
2023/06/11 01:33:14;;;;;;;13.47;12.10;;;18.30;99.90;;;;;;4994696;28;20038;-79
2023/06/11 01:35:41;;;;;;;13.30;12.00;;;18.30;99.90;;;;;;4994692;28;20304;-79
2023/06/11 01:38:08;;;;;;;12.57;11.35;;;18.20;99.90;;;;;;5013794;28;20124;-80
2023/06/11 01:40:34;;;;;;;12.15;11.05;;;18.20;99.90;;;;;;5014025;28;20041;-80
2023/06/11 01:43:00;;;;;;;12.27;10.98;;;18.30;99.90;;;;;;5013003;28;20042;-80
2023/06/11 01:45:27;;;;;;;13.00;11.90;;;18.30;99.90;;;;;;5002243;28;20076;-80
2023/06/11 01:47:53;;;;;;;13.10;11.65;;;18.30;99.90;;;;;;5012746;28;20073;-80
2023/06/11 01:50:20;;;;;;;12.80;11.80;;;18.30;99.90;;;;;;4993630;28;20076;-80
2023/06/11 01:52:46;;;;;;;13.57;12.38;;;18.20;99.90;;;;;;5030780;28;20045;-80
2023/06/11 01:55:12;;;;;;;12.40;11.38;;;18.20;99.90;;;;;;5014529;28;20136;-80
2023/06/11 01:57:38;;;;;;;12.80;11.50;;;18.20;99.90;;;;;;5009642;28;20117;-80
2023/06/11 02:00:09;;;;;;;12.90;11.70;;;18.10;99.90;;;;;;5029931;28;20484;-80
2023/06/11 02:02:35;;;;;;;12.95;11.82;;;18.10;99.90;;;;;;4997524;28;20037;-80
2023/06/11 02:05:01;;;;;;;13.23;11.95;;;18.20;99.90;;;;;;5014303;28;20453;-80
2023/06/11 02:07:27;;;;;;;12.65;11.55;;;18.10;99.90;;;;;;5026377;28;20067;-80
2023/06/11 02:09:53;;;;;;;13.38;12.15;;;18.10;99.90;;;;;;5013786;28;20037;-80
2023/06/11 02:12:19;;;;;;;12.85;11.75;;;18.10;99.90;;;;;;5014067;28;20125;-80
2023/06/11 02:14:44;;;;;;;12.95;11.95;;;18.00;99.90;;;;;;5008981;28;20042;-80
2023/06/11 02:17:10;;;;;;;12.88;11.77;;;18.10;99.90;;;;;;4994865;28;20080;-80
2023/06/11 02:19:37;;;;;;;13.20;11.80;;;18.00;99.90;;;;;;5036975;23;20132;-77
2023/06/11 02:22:03;;;;;;;13.02;12.02;;;18.00;99.90;;;;;;5007758;28;20129;-77
2023/06/11 02:24:28;;;;;;;12.82;11.80;;;18.00;99.90;;;;;;4994019;28;20076;-77
2023/06/11 02:26:54;;;;;;;13.75;12.45;;;18.00;99.90;;;;;;5013896;28;20060;-77
2023/06/11 02:29:20;;;;;;;13.15;11.93;;;17.90;99.90;;;;;;4997543;28;20037;-77
2023/06/11 02:31:45;;;;;;;13.25;12.05;;;17.90;99.90;;;;;;5021808;28;20041;-77
2023/06/11 02:34:11;;;;;;;13.02;11.85;;;17.90;99.90;;;;;;5013907;28;20554;-77
2023/06/11 02:36:37;;;;;;;12.93;11.82;;;17.90;99.90;;;;;;5016107;28;20085;-77
2023/06/11 02:39:03;;;;;;;12.82;11.82;;;17.80;99.90;;;;;;4999174;28;20034;-77
2023/06/11 02:41:29;;;;;;;13.52;12.23;;;17.80;99.90;;;;;;5030235;28;20092;-77
2023/06/11 02:43:54;;;;;;;13.45;12.25;;;17.70;99.90;;;;;;4990427;28;20037;-77
2023/06/11 02:46:20;;;;;;;12.43;11.43;;;17.70;99.90;;;;;;5000746;28;20045;-76
2023/06/11 02:48:45;;;;;;;12.48;11.48;;;17.70;99.90;;;;;;4978090;28;20026;-77
2023/06/11 02:51:11;;;;;;;13.15;11.90;;;17.70;99.90;;;;;;5015051;28;20092;-77
2023/06/11 02:53:36;;;;;;;13.35;12.05;;;17.70;99.90;;;;;;4958652;28;20432;-77
2023/06/11 02:56:02;;;;;;;13.02;11.90;;;17.60;99.90;;;;;;4990578;28;20042;-77
2023/06/11 02:58:28;;;;;;;13.10;12.00;;;17.60;99.90;;;;;;4991404;28;20385;-77
2023/06/11 03:00:53;;;;;;;12.80;11.70;;;17.60;99.90;;;;;;4983713;28;20066;-77
2023/06/11 03:03:19;;;;;;;13.43;12.23;;;17.60;99.90;;;;;;4995850;28;20034;-77
2023/06/11 03:05:44;;;;;;;12.93;11.82;;;17.60;99.90;;;;;;4992575;28;20042;-77
2023/06/11 03:08:10;;;;;;;13.30;12.10;;;17.60;99.90;;;;;;5033509;28;20128;-77
2023/06/11 03:10:36;;;;;;;13.88;12.68;;;17.60;99.90;;;;;;5033496;28;20136;-77
2023/06/11 03:13:02;;;;;;;13.98;12.88;;;17.50;99.90;;;;;;5025188;28;20041;-76
2023/06/11 03:15:27;;;;;;;13.77;12.57;;;17.60;99.90;;;;;;5011146;28;20037;-76
2023/06/11 03:17:53;;;;;;;13.55;12.55;;;17.50;99.90;;;;;;5022880;28;20046;-76
2023/06/11 03:20:18;;;;;;;14.05;12.73;;;17.50;99.90;;;;;;4993679;28;20054;-77
2023/06/11 03:22:44;;;;;;;14.27;12.90;;;17.50;99.90;;;;;;4993865;28;20039;-76
2023/06/11 03:25:09;;;;;;;14.70;13.40;;;17.50;99.90;;;;;;4996793;28;20070;-77
2023/06/11 03:27:35;;;;;;;14.02;12.93;;;17.50;99.90;;;;;;5011703;28;20038;-76
2023/06/11 03:30:01;;;;;;;14.32;13.23;;;17.50;99.90;;;;;;5001759;28;20583;-77
2023/06/11 03:32:26;;;;;;;14.73;13.50;;;17.40;99.90;;;;;;4980526;28;20033;-76
2023/06/11 03:34:52;;;;;;;14.70;13.50;;;17.40;99.90;;;;;;4988141;28;20072;-76
2023/06/11 03:37:18;;;;;;;14.80;13.52;;;17.40;99.90;;;;;;5020770;28;20059;-76
2023/06/11 03:39:44;;;;;;;14.45;13.15;;;17.40;99.90;;;;;;5011496;28;20044;-76
2023/06/11 03:42:10;;;;;;;14.00;12.95;;;17.30;99.90;;;;;;5020195;28;20042;-77
2023/06/11 03:44:36;;;;;;;14.07;12.77;;;17.40;99.90;;;;;;5002502;28;20073;-76
2023/06/11 03:47:02;;;;;;;14.43;13.07;;;17.30;99.90;;;;;;4990893;28;20041;-77
2023/06/11 03:49:27;;;;;;;14.52;13.35;;;17.30;99.90;;;;;;4992457;28;20410;-77
2023/06/11 03:51:55;;;;;;;13.90;12.75;;;17.30;99.90;;;;;;5014596;28;20041;-77
2023/06/11 03:54:20;;;;;;;14.80;13.50;;;17.30;99.90;;;;;;5005811;28;20104;-77
2023/06/11 03:56:46;;;;;;;14.68;13.38;;;17.30;99.90;;;;;;5015288;28;20484;-77
2023/06/11 03:59:11;;;;;;;14.38;13.27;;;17.30;99.90;;;;;;4989435;28;20036;-77
2023/06/11 04:01:37;;;;;;;14.02;12.82;;;17.30;99.90;;;;;;5025930;28;20045;-76
2023/06/11 04:04:03;;;;;;;14.15;12.85;;;17.30;99.90;;;;;;5031856;28;20511;-77
2023/06/11 04:06:29;;;;;;;13.77;12.77;;;17.30;99.90;;;;;;5001284;28;20115;-77
2023/06/11 04:08:55;;;;;;;14.75;13.45;;;17.30;99.90;;;;;;5024928;28;20476;-77
2023/06/11 04:11:20;;;;;;;14.40;13.20;;;17.40;99.90;;;;;;5008961;28;20059;-76
2023/06/11 04:13:49;;;;;;;14.15;12.93;;;17.30;99.90;;;;;;5007351;28;20490;-76
2023/06/11 04:16:16;;;;;;;14.77;13.57;;;17.30;99.90;;;;;;5020273;28;20496;-77
2023/06/11 04:18:42;;;;;;;13.80;12.60;;;17.40;99.90;;;;;;5015409;28;20049;-77
2023/06/11 04:21:07;;;;;;;15.25;13.95;;;17.40;99.90;;;;;;5007389;28;20042;-77
2023/06/11 04:23:33;;;;;;;15.07;13.90;;;17.50;99.90;;;;;;4994162;28;20064;-77
2023/06/11 04:25:58;;;;;;;14.38;13.18;;;17.80;99.90;;;;;;5007834;28;20121;-77
2023/06/11 04:28:26;;;;;;;14.48;13.38;;;18.20;99.90;;;;;;5007168;28;20111;-76
2023/06/11 04:30:52;;;;;;;14.15;12.95;;;18.70;99.90;;;;;;5025384;28;20042;-77
2023/06/11 04:33:17;;;;;;;15.48;14.05;;;19.10;99.90;;;;;;5023716;28;20123;-77
2023/06/11 04:35:43;;;;;;;14.20;13.00;;;19.40;99.90;;;;;;4983422;28;20146;-77
2023/06/11 04:38:10;;;;;;;14.82;13.48;;;19.70;99.90;;;;;;5000162;28;20527;-76
2023/06/11 04:40:36;;;;;;;13.15;12.13;;;19.80;99.90;;;;;;4997057;28;20034;-77
2023/06/11 04:43:01;;;;;;;13.38;12.30;;;20.00;99.90;;;;;;5020980;28;20043;-77
2023/06/11 04:45:28;;;;;;;13.68;12.57;;;20.20;99.90;;;;;;5022484;28;20076;-76
2023/06/11 04:47:53;;;;;;;12.98;11.95;;;20.40;99.90;;;;;;4983676;28;20088;-77
2023/06/11 04:50:22;;;;;;;13.68;12.48;;;20.60;99.90;;;;;;5002600;28;20046;-76
2023/06/11 04:52:51;;;;;;;12.88;11.88;;;20.70;99.90;;;;;;4986387;28;20058;-76
2023/06/11 04:55:19;;;;;;;13.15;11.88;;;21.00;99.90;;;;;;4985662;28;20034;-77
2023/06/11 04:57:45;;;;;;;12.35;11.35;;;21.20;99.90;;;;;;5011394;28;20050;-77
2023/06/11 05:00:11;;;;;;;12.40;11.25;;;21.40;99.90;;;;;;5011182;28;20046;-77
2023/06/11 05:02:38;;;;;;;12.20;11.10;;;21.70;99.90;;;;;;4983145;28;20055;-77
2023/06/11 05:05:07;;;;;;;12.10;11.18;;;21.90;99.90;;;;;;5015286;28;20516;-77
2023/06/11 05:07:33;;;;;;;12.75;11.60;;;22.20;99.90;;;;;;4997822;28;20072;-77
2023/06/11 05:09:59;;;;;;;12.77;11.68;;;22.40;99.90;;;;;;5003138;28;20504;-77
2023/06/11 05:12:25;;;;;;;12.60;11.40;;;22.60;98.10;;;;;;5031340;28;20099;-77
2023/06/11 05:14:51;;;;;;;12.60;11.60;;;22.90;93.10;;;;;;5025320;28;20116;-77
2023/06/11 05:17:16;;;;;;;12.45;11.30;;;23.00;91.50;;;;;;5022663;28;20041;-77
2023/06/11 05:19:43;;;;;;;11.65;10.73;;;23.00;91.00;;;;;;5020775;28;20514;-77
2023/06/11 05:22:08;;;;;;;12.30;11.20;;;23.00;90.70;;;;;;5022675;28;20090;-77
2023/06/11 05:24:34;;;;;;;12.63;11.52;;;23.20;85.40;;;;;;5031095;28;20033;-77
2023/06/11 05:27:00;;;;;;;11.93;10.75;;;23.40;89.20;;;;;;5005766;28;20125;-77
2023/06/11 05:29:26;;;;;;;11.05;10.25;;;23.70;85.60;;;;;;4990939;28;20624;-77
2023/06/11 05:31:52;;;;;;;12.50;11.20;;;24.00;80.30;;;;;;5019686;28;20045;-77
2023/06/11 05:34:18;;;;;;;12.70;11.40;;;24.20;78.10;;;;;;4999077;28;20444;-77
2023/06/11 05:36:45;;;;;;;11.55;10.65;;;24.40;74.00;;;;;;5016613;28;20041;-77
2023/06/11 05:39:12;;;;;;;12.40;11.10;;;24.30;73.40;;;;;;5011046;28;20049;-77
2023/06/11 05:41:38;;;;;;;11.65;10.70;;;24.40;74.40;;;;;;5014733;28;20125;-77
2023/06/11 05:44:04;;;;;;;11.18;10.27;;;24.50;74.10;;;;;;5019709;28;20500;-77
2023/06/11 05:46:30;;;;;;;12.45;11.35;;;24.60;73.80;;;;;;4984957;28;20072;-77
2023/06/11 05:48:57;;;;;;;11.77;10.73;;;24.80;71.40;;;;;;5026860;28;20395;-77
2023/06/11 05:51:23;;;;;;;12.00;11.10;;;24.80;71.50;;;;;;5005895;28;20050;-77
2023/06/11 05:53:48;;;;;;;12.27;11.27;;;24.90;70.80;;;;;;5001876;28;20132;-77
2023/06/11 05:56:14;;;;;;;11.68;10.63;;;24.90;69.70;;;;;;4999276;28;20048;-77
2023/06/11 05:58:40;;;;;;;11.40;10.40;;;24.80;70.10;;;;;;4983793;28;20072;-77
2023/06/11 06:01:06;;;;;;;11.85;10.95;;;24.80;70.00;;;;;;4994271;28;20078;-77
2023/06/11 06:03:33;;;;;;;12.02;11.05;;;24.50;70.50;;;;;;5020610;28;20081;-77
2023/06/11 06:06:01;;;;;;;12.30;11.35;;;23.90;72.30;;;;;;5022270;28;20491;-77
2023/06/11 06:08:28;;;;;;;11.35;10.38;;;23.40;74.80;;;;;;4991208;28;20042;-77
2023/06/11 06:10:54;;;;;;;12.50;11.40;;;23.00;80.00;;;;;;4974936;28;20046;-77
2023/06/11 06:13:20;;;;;;;12.38;11.27;;;22.70;91.90;;;;;;4968208;28;20033;-77
2023/06/11 06:15:45;;;;;;;12.35;11.18;;;22.60;95.80;;;;;;4991111;28;20406;-77
2023/06/11 06:18:11;;;;;;;12.80;11.52;;;22.50;98.00;;;;;;5030642;28;20515;-77
2023/06/11 06:20:36;;;;;;;12.70;11.57;;;22.30;99.70;;;;;;4997409;28;20042;-77
2023/06/11 06:23:02;;;;;;;12.88;11.68;;;22.20;99.90;;;;;;5012635;28;20121;-77
2023/06/11 06:25:28;;;;;;;12.40;11.48;;;22.20;99.90;;;;;;5022150;28;20483;-77
2023/06/11 06:27:53;;;;;;;13.40;12.10;;;22.20;99.90;;;;;;5019596;28;20037;-77
2023/06/11 06:30:19;;;;;;;12.95;11.73;;;22.10;99.90;;;;;;5021911;28;20045;-77
2023/06/11 06:32:44;;;;;;;13.77;12.52;;;22.10;99.90;;;;;;5026419;28;20057;-77
2023/06/11 06:35:11;;;;;;;13.68;12.50;;;22.10;99.90;;;;;;5002861;28;20042;-77
2023/06/11 06:37:36;;;;;;;12.45;11.35;;;22.10;99.90;;;;;;5020327;28;20042;-77
2023/06/11 06:40:03;;;;;;;13.20;12.05;;;22.10;99.90;;;;;;5013890;28;20414;-77
2023/06/11 06:42:29;;;;;;;12.65;11.63;;;22.20;99.90;;;;;;5014375;28;20496;-77
2023/06/11 06:44:54;;;;;;;12.90;11.60;;;22.30;99.90;;;;;;5016682;28;20036;-76
2023/06/11 06:47:20;;;;;;;12.18;11.27;;;22.30;99.90;;;;;;5025747;28;20442;-77
2023/06/11 06:49:45;;;;;;;12.00;11.00;;;22.30;99.90;;;;;;5031071;28;20034;-77
2023/06/11 06:52:11;;;;;;;12.63;11.43;;;22.50;99.90;;;;;;5017187;28;20614;-77
2023/06/11 06:54:38;;;;;;;12.77;11.75;;;22.50;99.90;;;;;;5029174;28;20045;-77
2023/06/11 06:57:05;;;;;;;12.65;11.45;;;22.50;99.90;;;;;;5033507;28;20041;-77
2023/06/11 06:59:30;;;;;;;12.70;11.50;;;22.60;99.90;;;;;;5033645;28;20499;-77
2023/06/11 07:01:56;;;;;;;11.50;10.60;;;22.80;99.90;;;;;;5006155;28;20060;-77
2023/06/11 07:04:21;;;;;;;12.60;11.43;;;22.80;99.90;;;;;;4985073;28;20521;-77
2023/06/11 07:06:47;;;;;;;11.13;10.25;;;22.90;99.90;;;;;;4997590;28;20120;-78
2023/06/11 07:09:12;;;;;;;11.98;10.82;;;22.90;99.90;;;;;;5002910;28;20048;-76
2023/06/11 07:11:38;;;;;;;11.60;10.70;;;23.00;99.90;;;;;;4993293;28;20082;-77
2023/06/11 07:14:04;;;;;;;11.93;10.93;;;23.10;99.90;;;;;;5005798;28;20485;-77
2023/06/11 07:16:29;;;;;;;11.85;10.90;;;23.20;99.90;;;;;;4991076;28;20029;-77
2023/06/11 07:18:55;;;;;;;12.07;11.00;;;23.30;99.60;;;;;;5033518;28;20045;-77
2023/06/11 07:21:23;;;;;;;11.10;10.15;;;23.40;96.40;;;;;;5015686;28;20536;-77
2023/06/11 07:23:48;;;;;;;11.65;10.65;;;23.50;99.90;;;;;;4973491;28;20121;-77
2023/06/11 07:26:15;;;;;;;10.70;9.77;;;23.60;99.90;;;;;;4970114;28;20146;-77
2023/06/11 07:28:41;;;;;;;11.27;10.35;;;23.70;98.40;;;;;;5005057;28;20038;-77
2023/06/11 07:31:07;;;;;;;11.95;10.85;;;23.80;99.90;;;;;;5003321;28;20060;-76
2023/06/11 07:33:33;;;;;;;11.32;10.32;;;23.90;99.00;;;;;;5011662;28;20042;-77
2023/06/11 07:35:59;;;;;;;10.88;9.95;;;24.10;97.50;;;;;;5016840;28;20088;-77
2023/06/11 07:38:25;;;;;;;10.73;9.88;;;24.30;99.10;;;;;;5008209;28;20487;-77
2023/06/11 07:40:52;;;;;;;10.32;9.30;;;24.50;97.70;;;;;;5015853;28;20564;-77
2023/06/11 07:43:17;;;;;;;10.85;9.77;;;24.70;87.90;;;;;;5007142;28;20045;-77
2023/06/11 07:45:43;;;;;;;9.65;8.85;;;25.00;83.00;;;;;;4998013;28;20089;-77
2023/06/11 07:48:10;;;;;;;10.07;9.25;;;25.50;84.90;;;;;;5006338;28;20124;-78
2023/06/11 07:50:37;;;;;;;9.50;8.68;;;26.30;81.80;;;;;;5017712;28;20490;-78
2023/06/11 07:53:03;;;;;;;9.25;8.45;;;27.00;73.80;;;;;;5005182;28;20133;-78
2023/06/11 07:55:29;;;;;;;10.43;9.38;;;27.70;70.90;;;;;;5027422;28;20084;-78
2023/06/11 07:57:55;;;;;;;9.90;8.98;;;28.30;70.20;;;;;;4994708;28;20502;-78
2023/06/11 08:00:21;;;;;;;9.30;8.60;;;29.00;65.90;;;;;;5014572;28;20049;-78
2023/06/11 08:02:46;;;;;;;9.88;8.88;;;29.50;62.90;;;;;;5010024;28;20496;-79
2023/06/11 08:05:17;;;;;;;9.07;8.23;;;29.90;62.60;;;;;;5001851;28;20038;-78
2023/06/11 08:07:44;;;;;;;8.63;7.93;;;30.50;62.00;;;;;;5018975;28;20265;-78
2023/06/11 08:10:10;;;;;;;8.32;7.57;;;31.00;60.10;;;;;;5014408;28;20092;-79
2023/06/11 08:12:36;;;;;;;7.90;7.10;;;31.50;58.90;;;;;;5015085;28;20537;-79
2023/06/11 08:15:02;;;;;;;8.10;7.40;;;32.10;59.30;;;;;;4979022;28;20038;-79
2023/06/11 08:17:28;;;;;;;8.32;7.63;;;32.60;57.10;;;;;;5033777;28;20029;-78
2023/06/11 08:24:09;;;;;;;;;;;;;;;;;;;;;
2023/06/11 08:31:32;;;;;;;7.70;7.00;;;33.30;51.80;;;;;;5080251;22;20048;-79
2023/06/11 08:35:03;;;;;;;7.70;7.00;;;33.80;50.90;;;;;;5015437;28;20080;-81
2023/06/11 08:38:48;;;;;;;8.85;7.80;;;34.10;50.20;;;;;;5005531;28;20305;-80
2023/06/11 08:42:39;;;;;;;8.07;6.32;;;34.00;51.60;;;;;;4917444;29;20048;-80
2023/06/11 09:14:22;;;;;;;6.45;5.80;;;35.40;47.90;;;;;;4992880;28;20065;-79
2023/06/11 09:17:41;;;;;;;6.30;5.70;;;35.60;47.10;;;;;;4920185;28;20112;-78
2023/06/11 09:21:10;;;;;;;;;;;;;;;;;;;;;
2023/06/11 09:24:21;;;;;;;6.43;5.90;;;36.40;45.90;;;;;;4978383;28;20038;-78
2023/06/11 09:27:14;;;;;;;6.60;5.82;;;36.40;47.00;;;;;;4970666;28;20557;-78
2023/06/11 09:42:45;;;;;;;;;;;;;;;;;;;;;
2023/06/11 09:46:10;;;;;;;;;;;;;;;;;;;;;
2023/06/11 09:52:01;;;;;;;5.75;5.25;;;36.80;45.60;;;;;;6034989;23;20025;-82
2023/06/11 09:55:28;;;;;;;;;;;;;;;;;;;;;
2023/06/11 10:06:44;;;;;;;;;;;;;;;;;;;;;
2023/06/11 10:10:06;;;;;;;;;;;;;;;;;;;;;
2023/06/11 10:17:42;;;;;;;;;;;;;;;;;;;;;
2023/06/11 10:21:33;;;;;;;5.70;4.85;;;37.70;41.80;;;;;;5015696;22;20099;-78
2023/06/11 10:34:19;;;;;;;;;;;;;;;;;;;;;
2023/06/11 10:41:37;;;;;;;5.95;4.40;;;37.20;41.30;;;;;;4961100;28;20057;-80
2023/06/11 10:45:00;;;;;;;5.03;4.63;;;37.40;40.40;;;;;;4968859;28;20047;-80
2023/06/11 10:47:29;;;;;;;6.35;4.40;;;37.90;39.40;;;;;;4972995;23;20059;-76
2023/06/11 10:50:08;;;;;;;4.63;4.22;;;38.20;39.80;;;;;;4963078;28;20062;-76
2023/06/11 10:52:54;;;;;;;4.57;4.18;;;38.60;38.10;;;;;;4943971;28;20560;-76
2023/06/11 10:55:22;;;;;;;5.82;4.18;;;38.60;37.50;;;;;;4956519;28;20046;-76
2023/06/11 10:57:52;;;;;;;5.43;4.18;;;38.80;38.40;;;;;;4954806;28;20393;-76
2023/06/11 11:00:18;;;;;;;4.65;4.05;;;38.90;37.80;;;;;;4955410;28;20035;-76
2023/06/11 11:02:46;;;;;;;4.28;3.88;;;38.80;38.20;;;;;;4952077;28;20478;-76
2023/06/11 11:05:12;;;;;;;6.45;4.25;;;38.80;38.30;;;;;;4935956;28;20498;-76
2023/06/11 11:07:38;;;;;;;5.57;4.05;;;38.80;38.10;;;;;;4935681;29;20046;-76
2023/06/11 11:10:05;;;;;;;4.50;4.00;;;39.00;38.60;;;;;;4947986;28;20053;-76
2023/06/11 11:12:47;;;;;;;4.88;4.30;;;39.30;38.70;;;;;;4971251;28;20058;-76
2023/06/11 11:15:13;;;;;;;5.05;4.63;;;39.40;37.90;;;;;;4955026;28;20031;-76
2023/06/11 11:17:40;;;;;;;4.80;4.32;;;39.40;37.90;;;;;;4970522;28;20045;-76
2023/06/11 11:20:07;;;;;;;5.85;4.55;;;39.30;37.30;;;;;;4974230;28;20073;-76
2023/06/11 11:22:34;;;;;;;4.63;4.22;;;39.20;37.00;;;;;;4959523;28;20043;-76
2023/06/11 11:25:00;;;;;;;4.68;4.28;;;39.30;36.50;;;;;;4982433;28;20078;-76
2023/06/11 11:27:26;;;;;;;6.00;4.50;;;39.00;35.70;;;;;;4974272;28;20089;-76
2023/06/11 11:29:54;;;;;;;7.07;4.70;;;38.90;35.00;;;;;;4973305;28;20516;-76
2023/06/11 11:32:21;;;;;;;8.00;5.03;;;38.40;35.10;;;;;;4974102;28;20039;-77
2023/06/11 11:34:47;;;;;;;5.15;4.00;;;37.60;35.80;;;;;;4990806;28;20046;-75
2023/06/11 11:37:12;;;;;;;6.15;5.20;;;37.20;38.20;;;;;;4966004;28;20034;-76
2023/06/11 11:39:38;;;;;;;5.57;4.68;;;37.30;38.00;;;;;;4966043;28;20552;-76
2023/06/11 11:42:08;;;;;;;5.07;4.57;;;37.70;37.00;;;;;;4974323;28;20235;-76
2023/06/11 11:44:41;;;;;;;6.38;4.47;;;38.00;36.30;;;;;;4973552;28;20046;-76
2023/06/11 11:47:18;;;;;;;5.22;4.40;;;38.30;35.80;;;;;;4958086;28;20162;-76
2023/06/11 11:49:54;;;;;;;5.22;4.32;;;38.30;35.90;;;;;;4974065;28;20054;-76
2023/06/11 11:52:21;;;;;;;6.00;4.40;;;38.60;35.50;;;;;;4957988;28;20043;-76
2023/06/11 11:54:46;;;;;;;4.85;4.35;;;38.60;35.10;;;;;;4958010;28;20682;-76
2023/06/11 11:57:12;;;;;;;4.75;4.20;;;38.50;35.30;;;;;;4957889;28;20034;-76
2023/06/11 11:59:38;;;;;;;8.52;4.60;;;38.50;35.20;;;;;;4945054;28;20031;-76
2023/06/11 12:02:04;;;;;;;26.00;5.55;;;38.50;34.90;;;;;;4971113;28;20047;-76
2023/06/11 12:04:35;;;;;;;5.53;4.40;;;38.40;35.70;;;;;;4973887;28;20547;-76
2023/06/11 12:07:06;;;;;;;4.85;4.45;;;38.50;36.10;;;;;;4955615;28;20778;-76
2023/06/11 12:09:33;;;;;;;5.63;4.72;;;38.80;34.00;;;;;;4965395;28;20074;-77
2023/06/11 12:11:58;;;;;;;5.13;4.63;;;38.60;35.40;;;;;;4969638;28;20057;-75
2023/06/11 12:14:24;;;;;;;7.07;4.72;;;38.40;35.70;;;;;;4972133;28;20047;-77
2023/06/11 12:16:50;;;;;;;46.88;6.22;;;38.30;34.80;;;;;;4955433;28;20031;-76
2023/06/11 12:19:18;;;;;;;13.43;5.10;;;38.40;35.70;;;;;;4963940;28;20039;-76
2023/06/11 12:21:44;;;;;;;6.97;4.47;;;38.70;35.50;;;;;;4959493;28;20039;-76
2023/06/11 12:24:12;;;;;;;6.90;5.07;;;39.00;34.90;;;;;;4938293;29;20051;-76
2023/06/11 12:26:38;;;;;;;7.65;4.35;;;39.00;34.50;;;;;;4956827;28;20287;-76
2023/06/11 12:29:03;;;;;;;5.90;4.20;;;38.80;33.20;;;;;;4983789;28;20519;-76
2023/06/11 12:31:30;;;;;;;8.02;4.50;;;38.60;34.10;;;;;;4972574;28;20042;-76
2023/06/11 12:33:56;;;;;;;5.15;4.60;;;38.60;34.30;;;;;;4973694;28;20445;-76
2023/06/11 12:36:21;;;;;;;5.68;4.63;;;38.50;35.20;;;;;;4969472;28;20039;-76
2023/06/11 12:38:47;;;;;;;5.95;4.78;;;38.50;35.80;;;;;;4984282;28;20042;-76
2023/06/11 12:41:12;;;;;;;5.03;4.53;;;38.50;34.80;;;;;;4973491;28;20074;-76
2023/06/11 12:43:38;;;;;;;5.72;4.57;;;38.20;34.40;;;;;;4973233;28;20045;-76
2023/06/11 12:46:03;;;;;;;4.60;4.20;;;38.10;35.20;;;;;;4971390;28;20628;-76
2023/06/11 12:48:29;;;;;;;5.07;4.57;;;38.30;35.10;;;;;;4964783;28;20042;-76
2023/06/11 12:50:55;;;;;;;4.60;4.20;;;38.70;34.70;;;;;;4989075;28;20038;-76
2023/06/11 12:53:21;;;;;;;6.80;4.70;;;38.80;33.10;;;;;;4973298;28;20169;-76
2023/06/11 12:55:47;;;;;;;4.93;4.43;;;38.60;33.30;;;;;;4963882;28;20043;-77
2023/06/11 12:58:12;;;;;;;6.68;5.13;;;38.70;34.60;;;;;;4969458;28;20386;-76
2023/06/11 13:00:38;;;;;;;6.32;4.88;;;38.90;34.50;;;;;;4970301;28;20058;-76
2023/06/11 13:03:05;;;;;;;5.80;4.57;;;39.10;34.10;;;;;;4972743;28;20042;-76
2023/06/11 13:05:31;;;;;;;4.65;4.20;;;39.10;33.00;;;;;;4951427;28;20046;-76
2023/06/11 13:07:58;;;;;;;5.40;4.40;;;38.90;32.70;;;;;;4958680;28;20047;-76
2023/06/11 13:10:25;;;;;;;5.63;4.30;;;38.90;32.60;;;;;;4964079;28;20039;-76
2023/06/11 13:12:53;;;;;;;6.78;4.80;;;39.10;34.80;;;;;;4956553;28;20070;-76
2023/06/11 13:15:19;;;;;;;6.57;4.80;;;39.10;32.80;;;;;;4953371;28;20037;-76
2023/06/11 13:17:45;;;;;;;5.38;4.88;;;39.10;33.40;;;;;;4956508;28;20039;-76
2023/06/11 13:20:11;;;;;;;5.47;4.70;;;39.10;32.60;;;;;;4978399;28;20046;-76
2023/06/11 13:22:37;;;;;;;14.85;5.55;;;38.70;34.30;;;;;;4972366;28;20034;-76
2023/06/11 13:25:03;;;;;;;23.90;5.85;;;38.70;34.00;;;;;;4973926;28;20520;-77
2023/06/11 13:27:29;;;;;;;9.02;5.05;;;38.80;35.20;;;;;;4971510;28;20042;-76
2023/06/11 13:29:55;;;;;;;5.95;5.10;;;39.00;34.50;;;;;;4974746;28;20482;-76
2023/06/11 13:32:22;;;;;;;9.82;5.47;;;39.00;33.90;;;;;;4963004;28;20053;-76
2023/06/11 13:34:47;;;;;;;10.73;5.00;;;38.80;34.40;;;;;;4977495;28;20039;-76
2023/06/11 13:37:13;;;;;;;7.90;5.07;;;38.90;34.90;;;;;;4963665;28;20508;-76
2023/06/11 13:39:39;;;;;;;7.45;5.10;;;38.90;34.80;;;;;;4970240;28;20039;-76
2023/06/11 13:42:05;;;;;;;7.95;4.85;;;39.10;33.30;;;;;;4958731;28;20117;-76
2023/06/11 13:44:30;;;;;;;6.00;4.95;;;38.60;34.20;;;;;;4959521;28;20031;-76
2023/06/11 13:46:56;;;;;;;7.93;5.15;;;38.30;35.00;;;;;;4974342;28;20081;-76
2023/06/11 13:49:22;;;;;;;111.57;9.77;;;38.50;35.70;;;;;;4972015;28;20477;-76
2023/06/11 13:51:47;;;;;;;6.80;4.90;;;38.60;35.70;;;;;;4955489;28;20516;-76
2023/06/11 13:54:13;;;;;;;7.20;4.70;;;38.70;35.00;;;;;;4950449;28;20042;-76
2023/06/11 13:56:39;;;;;;;7.03;4.93;;;39.00;36.70;;;;;;4965179;28;20503;-76
2023/06/11 13:59:04;;;;;;;5.85;4.90;;;39.30;35.10;;;;;;4969726;28;20043;-75
2023/06/11 14:01:30;;;;;;;5.15;4.50;;;39.40;33.70;;;;;;4968470;28;20045;-76
2023/06/11 14:03:55;;;;;;;5.10;4.50;;;39.30;34.70;;;;;;4970731;28;20046;-76
2023/06/11 14:06:21;;;;;;;7.47;5.20;;;39.20;34.60;;;;;;4970962;28;20050;-76
2023/06/11 14:08:47;;;;;;;5.63;4.72;;;39.20;33.40;;;;;;4971001;28;20565;-76
2023/06/11 14:11:13;;;;;;;5.13;4.68;;;39.10;33.60;;;;;;4952588;28;20042;-77
2023/06/11 14:13:42;;;;;;;8.00;5.00;;;39.00;34.20;;;;;;4963378;28;20486;-75
2023/06/11 14:16:08;;;;;;;6.95;4.68;;;38.90;33.70;;;;;;4948602;28;20564;-76
2023/06/11 14:18:34;;;;;;;5.05;4.55;;;38.60;33.50;;;;;;4952436;28;20042;-76